Time;durP1;ratioP1;P1;durP2;ratioP2;P2;SDS_P1;SDS_P2;PMS_P1;PMS_P2;Temp;Humidity;BMP_temperature;BMP_pressure;BME280_temperature;BME280_humidity;BME280_pressure;Samples;Min_cycle;Max_cycle;Signal;HPM_P1;HPM_P2
2023/07/23 00:01:10;;;;;;;9.53;3.50;;;17.40;98.00;;;;;;5033532;28;20996;-69
2023/07/23 00:03:37;;;;;;;4.70;3.00;;;17.20;98.00;;;;;;5032723;28;20451;-69
2023/07/23 00:06:04;;;;;;;6.50;3.27;;;17.20;98.00;;;;;;5033508;28;20454;-68
2023/07/23 00:08:33;;;;;;;6.03;3.30;;;17.20;98.00;;;;;;5032937;28;20573;-69
2023/07/23 00:11:00;;;;;;;5.80;3.30;;;17.20;98.00;;;;;;5033287;28;20465;-69
2023/07/23 00:13:27;;;;;;;4.60;3.33;;;17.10;98.00;;;;;;5033043;28;20507;-69
2023/07/23 00:15:54;;;;;;;4.60;2.90;;;17.20;98.00;;;;;;5032771;28;20516;-69
2023/07/23 00:18:23;;;;;;;4.97;3.40;;;17.30;98.00;;;;;;5033211;28;20865;-69
2023/07/23 00:20:50;;;;;;;5.27;3.20;;;17.10;98.00;;;;;;5033053;28;20493;-69
2023/07/23 00:23:17;;;;;;;4.90;3.20;;;17.20;98.00;;;;;;5033330;28;20458;-69
2023/07/23 00:25:44;;;;;;;13.03;3.20;;;17.10;98.00;;;;;;5032878;28;20455;-69
2023/07/23 00:28:11;;;;;;;4.77;3.00;;;17.20;98.00;;;;;;5032905;28;20446;-69
2023/07/23 00:30:39;;;;;;;4.80;3.10;;;17.10;98.00;;;;;;5032613;28;20465;-69
2023/07/23 00:33:06;;;;;;;5.17;2.70;;;17.10;98.00;;;;;;5032988;28;20462;-69
2023/07/23 00:35:35;;;;;;;6.13;3.53;;;17.10;98.00;;;;;;5015233;28;20508;-69
2023/07/23 00:38:02;;;;;;;5.23;3.20;;;17.10;98.00;;;;;;5032641;28;21004;-69
2023/07/23 00:40:29;;;;;;;4.60;3.17;;;17.10;98.00;;;;;;5032704;28;20454;-69
2023/07/23 00:42:56;;;;;;;5.23;3.10;;;17.10;98.00;;;;;;5032700;28;20484;-69
2023/07/23 00:45:24;;;;;;;6.67;3.10;;;17.00;98.00;;;;;;5032654;28;20459;-69
2023/07/23 00:47:52;;;;;;;6.60;3.53;;;17.00;98.00;;;;;;5032784;28;20450;-69
2023/07/23 00:50:19;;;;;;;4.70;2.80;;;16.90;98.00;;;;;;5032540;28;20486;-69
2023/07/23 00:52:48;;;;;;;6.73;3.33;;;16.90;98.00;;;;;;5032442;28;20987;-69
2023/07/23 00:55:15;;;;;;;4.53;3.00;;;16.90;98.00;;;;;;5032554;28;20478;-69
2023/07/23 00:57:42;;;;;;;4.83;3.27;;;16.80;98.00;;;;;;5032349;28;20462;-69
2023/07/23 01:00:10;;;;;;;6.00;3.27;;;16.90;98.00;;;;;;5032354;28;20462;-68
2023/07/23 01:02:37;;;;;;;5.13;3.20;;;16.90;98.00;;;;;;5032231;28;20481;-69
2023/07/23 01:05:06;;;;;;;5.90;3.67;;;17.00;98.00;;;;;;5032322;28;20459;-68
2023/07/23 01:07:35;;;;;;;5.37;3.33;;;17.00;98.00;;;;;;5032092;28;20523;-69
2023/07/23 01:10:04;;;;;;;6.13;3.43;;;16.90;98.00;;;;;;5032073;28;20981;-69
2023/07/23 01:12:32;;;;;;;4.33;3.00;;;16.90;98.00;;;;;;5031930;28;20553;-69
2023/07/23 01:14:59;;;;;;;7.10;3.40;;;16.80;98.00;;;;;;5014671;28;20474;-69
2023/07/23 01:17:26;;;;;;;3.70;2.90;;;16.80;98.00;;;;;;5031925;28;20889;-69
2023/07/23 01:20:04;;;;;;;4.40;2.93;;;16.80;98.00;;;;;;5031878;28;20466;-69
2023/07/23 01:22:34;;;;;;;6.63;3.00;;;16.60;98.00;;;;;;5031780;28;20496;-68
2023/07/23 01:25:02;;;;;;;5.20;3.30;;;16.50;98.00;;;;;;5031803;28;20450;-69
2023/07/23 01:27:29;;;;;;;9.30;3.73;;;16.50;98.00;;;;;;4997962;28;20458;-69
2023/07/23 01:29:56;;;;;;;5.00;3.10;;;16.40;98.00;;;;;;5031664;28;20485;-69
2023/07/23 01:32:24;;;;;;;6.30;3.30;;;16.30;98.00;;;;;;5031595;28;20462;-69
2023/07/23 01:34:52;;;;;;;5.67;3.20;;;16.40;98.00;;;;;;5031526;28;20466;-69
2023/07/23 01:37:20;;;;;;;6.27;3.53;;;16.30;98.00;;;;;;5031566;28;20537;-69
2023/07/23 01:39:52;;;;;;;6.20;3.30;;;16.30;98.00;;;;;;5031702;28;20454;-69
2023/07/23 01:42:19;;;;;;;5.37;3.00;;;16.30;98.00;;;;;;5031886;28;20953;-69
2023/07/23 01:44:46;;;;;;;5.93;3.07;;;16.20;98.00;;;;;;5013912;28;21037;-69
2023/07/23 01:47:14;;;;;;;4.83;3.23;;;16.40;98.00;;;;;;5031467;28;20454;-69
2023/07/23 01:49:41;;;;;;;3.37;2.77;;;16.30;98.00;;;;;;5031262;28;20510;-69
2023/07/23 01:52:08;;;;;;;7.50;3.00;;;16.20;98.00;;;;;;5031475;28;20454;-69
2023/07/23 01:54:35;;;;;;;10.60;3.10;;;16.30;98.00;;;;;;5013632;28;20512;-68
2023/07/23 01:57:16;;;;;;;6.63;3.07;;;16.10;98.00;;;;;;5013206;28;20458;-69
2023/07/23 01:59:43;;;;;;;6.10;2.80;;;16.20;98.00;;;;;;5028109;28;20467;-68
2023/07/23 02:02:10;;;;;;;6.30;3.40;;;16.10;98.00;;;;;;4997519;28;20458;-69
2023/07/23 02:04:37;;;;;;;4.27;3.00;;;16.10;98.00;;;;;;5031230;28;20459;-69
2023/07/23 02:07:05;;;;;;;5.57;3.37;;;16.00;98.00;;;;;;5031188;28;20831;-69
2023/07/23 02:09:32;;;;;;;5.07;3.07;;;16.00;98.00;;;;;;5031047;28;20543;-68
2023/07/23 02:11:59;;;;;;;5.13;3.10;;;16.00;98.00;;;;;;5031147;28;20509;-69
2023/07/23 02:14:29;;;;;;;7.63;3.00;;;16.00;98.00;;;;;;5031167;28;20828;-69
2023/07/23 02:16:56;;;;;;;5.60;2.90;;;15.90;98.00;;;;;;5030942;28;20769;-68
2023/07/23 02:19:26;;;;;;;6.97;3.50;;;15.70;98.00;;;;;;5031096;28;20454;-69
2023/07/23 02:21:53;;;;;;;5.43;2.80;;;15.80;98.00;;;;;;5031062;28;20454;-68
2023/07/23 02:24:20;;;;;;;6.07;3.23;;;15.80;98.00;;;;;;5031111;28;20862;-68
2023/07/23 02:26:47;;;;;;;5.00;3.00;;;15.80;98.00;;;;;;5031048;28;20457;-68
2023/07/23 02:29:14;;;;;;;6.30;3.37;;;15.90;98.00;;;;;;5031053;28;20482;-69
2023/07/23 02:31:42;;;;;;;4.13;2.70;;;15.80;98.00;;;;;;5013686;28;20509;-68
2023/07/23 02:34:09;;;;;;;5.20;3.40;;;15.80;98.00;;;;;;5031267;28;20455;-69
2023/07/23 02:36:36;;;;;;;5.37;3.10;;;15.70;98.00;;;;;;5031156;28;20512;-68
2023/07/23 02:39:04;;;;;;;3.90;2.93;;;15.60;98.00;;;;;;4995994;28;20451;-68
2023/07/23 02:41:31;;;;;;;7.10;2.97;;;15.50;98.00;;;;;;5030974;28;20637;-68
2023/07/23 02:43:58;;;;;;;4.53;3.20;;;15.50;98.00;;;;;;5030873;28;20461;-69
2023/07/23 02:46:25;;;;;;;5.23;3.10;;;15.60;98.00;;;;;;5030866;28;20537;-68
2023/07/23 02:48:53;;;;;;;4.63;2.87;;;15.50;98.00;;;;;;5030640;28;20988;-69
2023/07/23 02:51:21;;;;;;;6.10;2.97;;;15.50;98.00;;;;;;5030708;28;21070;-68
2023/07/23 02:53:49;;;;;;;5.90;3.10;;;15.50;98.00;;;;;;5030691;28;20493;-69
2023/07/23 02:56:16;;;;;;;4.97;2.90;;;15.40;98.00;;;;;;5013383;28;20463;-69
2023/07/23 02:58:43;;;;;;;6.20;3.20;;;15.30;98.00;;;;;;5030546;28;20557;-68
2023/07/23 03:01:10;;;;;;;4.60;2.90;;;15.50;98.00;;;;;;5030746;28;20463;-68
2023/07/23 03:03:37;;;;;;;6.53;3.20;;;15.30;98.00;;;;;;5030613;28;20451;-68
2023/07/23 03:06:08;;;;;;;6.40;3.60;;;15.30;98.00;;;;;;5030778;28;20458;-69
2023/07/23 03:08:35;;;;;;;6.30;3.40;;;15.20;98.00;;;;;;5032697;28;20458;-68
2023/07/23 03:11:05;;;;;;;6.77;3.80;;;15.20;98.00;;;;;;5034176;28;20493;-68
2023/07/23 03:13:32;;;;;;;6.77;3.97;;;15.30;98.00;;;;;;5033722;28;20653;-68
2023/07/23 03:16:00;;;;;;;5.33;3.23;;;15.30;98.00;;;;;;5016673;28;20481;-69
2023/07/23 03:18:28;;;;;;;5.17;2.90;;;15.30;98.00;;;;;;5034165;28;20459;-69
2023/07/23 03:20:55;;;;;;;5.93;3.20;;;15.40;98.00;;;;;;5034272;28;20459;-68
2023/07/23 03:23:24;;;;;;;5.47;3.17;;;15.50;98.00;;;;;;5034164;28;20458;-68
2023/07/23 03:25:51;;;;;;;4.60;2.97;;;15.60;98.00;;;;;;5034183;28;20461;-68
2023/07/23 03:28:19;;;;;;;4.10;2.73;;;15.60;98.00;;;;;;5016796;28;20477;-68
2023/07/23 03:30:46;;;;;;;4.63;3.20;;;15.70;98.00;;;;;;5034084;28;20478;-68
2023/07/23 03:33:14;;;;;;;5.83;3.27;;;15.50;98.00;;;;;;5034062;28;20470;-68
2023/07/23 03:35:41;;;;;;;5.73;3.03;;;15.50;98.00;;;;;;5015993;28;20455;-68
2023/07/23 03:38:08;;;;;;;4.97;2.90;;;15.40;98.00;;;;;;5033691;28;20458;-68
2023/07/23 03:40:37;;;;;;;4.90;2.87;;;15.30;98.00;;;;;;5033779;28;20462;-68
2023/07/23 03:43:04;;;;;;;5.53;3.03;;;15.10;98.00;;;;;;5033672;28;20479;-69
2023/07/23 03:45:32;;;;;;;5.47;3.30;;;15.00;98.00;;;;;;5033662;28;20470;-69
2023/07/23 03:47:59;;;;;;;4.27;2.67;;;15.00;98.00;;;;;;5033488;28;20465;-68
2023/07/23 03:50:26;;;;;;;4.87;2.93;;;15.00;98.00;;;;;;5033555;28;20485;-68
2023/07/23 03:52:53;;;;;;;4.93;3.10;;;15.10;98.00;;;;;;5033372;28;20458;-68
2023/07/23 03:55:21;;;;;;;5.83;3.07;;;15.10;98.00;;;;;;5033545;28;20831;-68
2023/07/23 03:57:50;;;;;;;5.53;3.00;;;15.00;98.00;;;;;;5033443;28;20795;-68
2023/07/23 04:00:17;;;;;;;5.53;2.67;;;14.80;98.00;;;;;;5033422;28;20463;-68
2023/07/23 04:02:44;;;;;;;5.37;3.00;;;14.90;98.00;;;;;;5033313;28;20458;-68
2023/07/23 04:05:11;;;;;;;5.20;2.87;;;14.80;98.00;;;;;;5033244;28;20458;-68
2023/07/23 04:07:38;;;;;;;5.03;3.10;;;14.90;98.00;;;;;;5033123;28;20572;-69
2023/07/23 04:10:05;;;;;;;7.37;3.73;;;15.00;98.00;;;;;;5033262;28;20917;-68
2023/07/23 04:12:34;;;;;;;4.40;3.00;;;14.90;98.00;;;;;;5032851;28;20458;-68
2023/07/23 04:15:04;;;;;;;4.70;2.60;;;14.90;98.00;;;;;;5033126;28;20499;-68
2023/07/23 04:17:31;;;;;;;5.33;2.83;;;15.00;98.00;;;;;;5033123;28;20455;-68
2023/07/23 04:19:58;;;;;;;5.43;3.50;;;15.10;98.00;;;;;;5032443;28;20461;-68
2023/07/23 04:22:25;;;;;;;5.10;2.70;;;15.00;98.00;;;;;;5015498;28;21003;-68
2023/07/23 04:24:53;;;;;;;5.30;3.30;;;15.10;98.00;;;;;;5033542;28;20458;-68
2023/07/23 04:27:20;;;;;;;4.47;3.00;;;15.00;98.00;;;;;;4999394;28;20454;-69
2023/07/23 04:29:49;;;;;;;5.00;3.03;;;15.10;98.00;;;;;;5032940;28;20455;-68
2023/07/23 04:32:18;;;;;;;5.10;3.03;;;15.10;98.00;;;;;;5032789;28;20447;-68
2023/07/23 04:34:45;;;;;;;4.87;3.07;;;15.10;98.00;;;;;;5032677;28;20470;-68
2023/07/23 04:37:14;;;;;;;6.60;3.10;;;15.10;98.00;;;;;;5032733;28;20567;-69
2023/07/23 04:39:41;;;;;;;5.80;2.60;;;15.30;98.00;;;;;;5032657;28;20533;-68
2023/07/23 04:42:08;;;;;;;6.23;3.20;;;15.20;98.00;;;;;;5032528;28;20867;-68
2023/07/23 04:44:36;;;;;;;4.00;2.77;;;15.30;98.00;;;;;;5032052;28;20462;-68
2023/07/23 04:47:03;;;;;;;6.33;3.20;;;15.30;98.00;;;;;;5032742;28;20876;-68
2023/07/23 04:49:31;;;;;;;4.50;2.70;;;15.40;98.00;;;;;;5032511;28;20493;-68
2023/07/23 04:52:02;;;;;;;5.30;3.40;;;15.40;98.00;;;;;;5032320;28;20494;-69
2023/07/23 04:54:29;;;;;;;8.80;3.10;;;15.40;98.00;;;;;;5014932;28;20964;-68
2023/07/23 04:56:56;;;;;;;5.17;2.50;;;15.40;98.00;;;;;;5032355;28;20528;-68
2023/07/23 04:59:23;;;;;;;4.80;3.07;;;15.40;98.00;;;;;;5032230;28;20463;-68
2023/07/23 05:01:50;;;;;;;6.30;3.07;;;15.50;98.00;;;;;;5032287;28;20462;-69
2023/07/23 05:04:17;;;;;;;4.40;3.00;;;15.60;98.00;;;;;;5032077;28;20459;-68
2023/07/23 05:06:46;;;;;;;5.10;2.87;;;15.60;98.00;;;;;;5032397;28;20458;-69
2023/07/23 05:09:13;;;;;;;4.33;2.70;;;15.60;98.00;;;;;;5032111;28;20462;-68
2023/07/23 05:11:40;;;;;;;5.50;3.17;;;15.80;98.00;;;;;;5032092;28;20517;-68
2023/07/23 05:14:07;;;;;;;4.50;3.20;;;16.10;98.00;;;;;;5031916;28;20520;-68
2023/07/23 05:16:34;;;;;;;11.93;3.27;;;16.10;98.00;;;;;;5032135;28;20470;-68
2023/07/23 05:19:01;;;;;;;5.43;3.20;;;16.10;98.00;;;;;;5014676;28;20463;-69
2023/07/23 05:21:29;;;;;;;4.73;2.97;;;16.10;98.00;;;;;;5032080;28;20459;-68
2023/07/23 05:23:57;;;;;;;4.63;2.97;;;16.20;98.00;;;;;;5014534;28;20450;-68
2023/07/23 05:26:24;;;;;;;6.03;2.90;;;16.20;98.00;;;;;;5031956;28;20458;-69
2023/07/23 05:28:52;;;;;;;4.30;2.70;;;16.30;98.00;;;;;;5031822;28;20462;-69
2023/07/23 05:31:19;;;;;;;8.53;2.80;;;16.40;98.00;;;;;;5031835;28;20490;-68
2023/07/23 05:33:46;;;;;;;5.73;3.30;;;16.40;98.00;;;;;;5031484;28;20505;-68
2023/07/23 05:36:13;;;;;;;5.37;3.30;;;16.50;98.00;;;;;;5031795;28;20459;-69
2023/07/23 05:38:40;;;;;;;6.57;3.60;;;16.70;98.00;;;;;;5031512;28;20451;-68
2023/07/23 05:41:08;;;;;;;8.50;3.30;;;16.80;98.00;;;;;;5031746;28;20458;-69
2023/07/23 05:43:35;;;;;;;5.00;3.13;;;16.70;98.00;;;;;;5031633;28;20458;-68
2023/07/23 05:46:03;;;;;;;7.90;3.50;;;16.80;98.00;;;;;;5031619;28;20466;-69
2023/07/23 05:48:30;;;;;;;4.67;2.97;;;16.90;98.00;;;;;;5031325;28;20454;-69
2023/07/23 05:50:57;;;;;;;4.33;2.90;;;17.00;98.00;;;;;;5013977;28;20552;-69
2023/07/23 05:53:24;;;;;;;6.83;3.40;;;17.10;98.00;;;;;;5031273;28;21038;-69
2023/07/23 05:55:52;;;;;;;5.03;2.90;;;17.10;98.00;;;;;;5031581;28;20458;-69
2023/07/23 05:58:20;;;;;;;3.70;2.80;;;17.30;98.00;;;;;;5031238;28;21001;-69
2023/07/23 06:00:47;;;;;;;6.47;3.07;;;17.30;98.00;;;;;;5031358;28;20996;-69
2023/07/23 06:03:14;;;;;;;4.87;3.17;;;17.40;98.00;;;;;;5031441;28;20466;-69
2023/07/23 06:05:41;;;;;;;5.43;3.23;;;17.50;98.00;;;;;;5031478;28;20462;-69
2023/07/23 06:08:08;;;;;;;5.80;2.70;;;17.60;98.00;;;;;;5031164;28;20500;-70
2023/07/23 06:10:35;;;;;;;4.27;2.70;;;17.80;98.00;;;;;;5031340;28;20493;-70
2023/07/23 06:13:02;;;;;;;4.97;2.93;;;17.90;98.00;;;;;;5031376;28;20945;-69
2023/07/23 06:15:31;;;;;;;3.47;3.03;;;18.00;98.00;;;;;;5031154;28;20906;-70
2023/07/23 06:17:58;;;;;;;5.60;3.37;;;18.20;98.00;;;;;;5031225;28;20459;-70
2023/07/23 06:20:26;;;;;;;5.93;3.30;;;18.30;98.00;;;;;;5031167;28;21163;-69
2023/07/23 06:22:54;;;;;;;4.40;2.87;;;18.50;98.00;;;;;;5031121;28;20459;-70
2023/07/23 06:25:21;;;;;;;5.43;2.93;;;18.60;98.00;;;;;;5031149;28;20478;-70
2023/07/23 06:27:49;;;;;;;4.43;2.97;;;18.70;98.00;;;;;;5030935;28;20450;-65
2023/07/23 06:30:16;;;;;;;5.20;2.87;;;18.90;98.00;;;;;;5030953;28;20960;-65
2023/07/23 06:32:45;;;;;;;4.30;2.90;;;19.10;98.00;;;;;;5030814;28;20470;-65
2023/07/23 06:35:12;;;;;;;6.10;2.90;;;19.30;98.00;;;;;;5030711;28;20455;-65
2023/07/23 06:37:40;;;;;;;14.03;2.80;;;19.50;98.00;;;;;;5030897;28;20848;-65
2023/07/23 06:40:09;;;;;;;5.77;2.90;;;19.80;98.00;;;;;;5030896;28;20941;-65
2023/07/23 06:42:36;;;;;;;5.13;2.87;;;20.00;98.00;;;;;;5031618;28;20454;-65
2023/07/23 06:45:03;;;;;;;9.07;4.00;;;20.20;98.00;;;;;;5034873;28;20737;-65
2023/07/23 06:47:30;;;;;;;11.17;4.30;;;20.40;98.00;;;;;;5034645;28;20466;-65
2023/07/23 06:49:59;;;;;;;10.57;5.30;;;20.60;98.00;;;;;;5034913;28;20484;-65
2023/07/23 06:52:26;;;;;;;12.43;4.90;;;20.80;98.00;;;;;;5017235;28;20493;-65
2023/07/23 06:54:53;;;;;;;16.93;5.60;;;20.90;98.00;;;;;;5034627;28;20468;-65
2023/07/23 06:57:20;;;;;;;5.97;3.10;;;21.10;98.00;;;;;;5017144;28;20454;-65
2023/07/23 06:59:48;;;;;;;5.20;3.37;;;21.20;98.00;;;;;;5034846;28;20446;-65
2023/07/23 07:02:16;;;;;;;3.67;2.50;;;21.30;98.00;;;;;;5031502;28;20537;-65
2023/07/23 07:04:43;;;;;;;4.67;2.90;;;21.40;98.00;;;;;;5034927;28;21175;-65
2023/07/23 07:07:11;;;;;;;6.33;2.50;;;21.50;98.00;;;;;;5034766;28;20458;-66
2023/07/23 07:09:38;;;;;;;3.70;2.57;;;21.60;98.00;;;;;;5016842;28;20459;-65
2023/07/23 07:12:06;;;;;;;5.80;3.10;;;21.60;98.00;;;;;;5034407;28;20573;-65
2023/07/23 07:14:33;;;;;;;4.30;2.80;;;21.60;98.00;;;;;;5034028;28;20470;-65
2023/07/23 07:17:00;;;;;;;4.07;2.70;;;21.70;98.00;;;;;;5034564;28;20517;-65
2023/07/23 07:19:29;;;;;;;3.50;2.50;;;21.90;98.00;;;;;;5035276;28;20463;-65
2023/07/23 07:21:56;;;;;;;5.03;2.70;;;22.00;98.00;;;;;;5017944;28;20458;-66
2023/07/23 07:24:24;;;;;;;4.70;2.70;;;22.10;98.00;;;;;;5034535;28;21003;-65
2023/07/23 07:26:51;;;;;;;7.30;3.00;;;22.10;97.90;;;;;;5034072;28;20446;-65
2023/07/23 07:29:19;;;;;;;3.80;2.50;;;22.30;97.30;;;;;;5035143;28;20439;-64
2023/07/23 07:31:48;;;;;;;4.60;2.70;;;22.20;96.40;;;;;;5035023;28;20482;-65
2023/07/23 07:34:15;;;;;;;4.10;2.73;;;22.20;96.80;;;;;;5034651;28;20458;-65
2023/07/23 07:36:43;;;;;;;4.20;2.70;;;22.20;96.50;;;;;;5033955;28;20866;-65
2023/07/23 07:39:10;;;;;;;3.53;2.43;;;22.20;96.80;;;;;;5016643;28;20537;-66
2023/07/23 07:41:39;;;;;;;3.67;2.60;;;22.30;97.20;;;;;;5033787;28;20466;-65
2023/07/23 07:44:06;;;;;;;5.03;2.80;;;22.50;95.90;;;;;;5033681;28;20516;-65
2023/07/23 07:46:34;;;;;;;7.43;2.70;;;22.70;96.50;;;;;;5033729;28;20633;-65
2023/07/23 07:49:02;;;;;;;4.70;2.67;;;22.90;96.90;;;;;;5033721;28;20980;-66
2023/07/23 07:51:30;;;;;;;4.93;2.90;;;23.10;95.20;;;;;;5033695;28;20876;-66
2023/07/23 07:53:57;;;;;;;6.70;2.60;;;23.20;93.40;;;;;;5032793;28;20513;-65
2023/07/23 07:56:25;;;;;;;3.60;2.50;;;23.40;93.90;;;;;;5016128;28;20494;-65
2023/07/23 07:58:54;;;;;;;5.37;2.97;;;23.60;94.00;;;;;;5033633;28;20457;-65
2023/07/23 08:01:22;;;;;;;4.23;2.70;;;23.80;94.50;;;;;;5016139;28;20505;-64
2023/07/23 08:03:53;;;;;;;5.30;2.83;;;23.90;93.90;;;;;;5026318;28;20757;-65
2023/07/23 08:06:22;;;;;;;4.40;2.93;;;24.10;93.10;;;;;;5005607;28;20456;-65
2023/07/23 08:08:50;;;;;;;3.60;2.80;;;24.40;93.70;;;;;;5013596;28;20529;-66
2023/07/23 08:11:18;;;;;;;4.20;3.03;;;24.60;91.30;;;;;;4996182;28;20561;-65
2023/07/23 08:13:45;;;;;;;3.97;2.63;;;24.50;90.80;;;;;;4996096;28;20466;-65
2023/07/23 08:16:18;;;;;;;4.80;2.93;;;24.50;91.40;;;;;;5025507;28;20807;-65
2023/07/23 08:18:45;;;;;;;4.03;2.90;;;24.50;91.30;;;;;;5033071;28;20517;-66
2023/07/23 08:21:13;;;;;;;3.43;2.57;;;24.40;92.10;;;;;;5033107;28;20459;-65
2023/07/23 08:23:41;;;;;;;3.80;2.80;;;24.50;91.40;;;;;;5032659;28;20481;-65
2023/07/23 08:26:14;;;;;;;3.10;2.50;;;24.40;90.60;;;;;;5015395;28;20454;-65
2023/07/23 08:28:50;;;;;;;4.70;2.60;;;24.50;91.50;;;;;;5015849;28;20459;-65
2023/07/23 08:31:20;;;;;;;3.77;2.50;;;24.80;91.10;;;;;;5016065;28;20482;-65
2023/07/23 08:33:49;;;;;;;3.23;2.30;;;25.00;89.30;;;;;;5032807;28;20470;-65
2023/07/23 08:36:17;;;;;;;3.83;2.60;;;25.10;88.40;;;;;;5033024;28;20455;-65
2023/07/23 08:38:44;;;;;;;3.30;2.47;;;25.10;87.90;;;;;;5032217;28;20494;-65
2023/07/23 08:41:23;;;;;;;3.77;2.43;;;25.20;88.10;;;;;;5032621;28;20455;-66
2023/07/23 08:44:41;;;;;;;4.70;2.40;;;25.40;87.90;;;;;;5032662;28;20658;-65
2023/07/23 08:47:13;;;;;;;4.13;2.40;;;25.40;87.70;;;;;;5032485;28;20467;-65
2023/07/23 08:49:42;;;;;;;3.20;2.33;;;25.40;88.50;;;;;;5032362;28;20474;-65
2023/07/23 08:52:11;;;;;;;3.90;2.47;;;25.50;88.10;;;;;;5032483;28;20513;-65
2023/07/23 08:54:38;;;;;;;4.00;2.50;;;25.60;87.60;;;;;;5032422;28;20458;-66
2023/07/23 08:57:07;;;;;;;3.30;2.20;;;25.60;88.20;;;;;;5032243;28;20447;-65
2023/07/23 08:59:36;;;;;;;3.33;2.47;;;25.60;88.80;;;;;;5015057;28;20878;-65
2023/07/23 09:02:03;;;;;;;4.17;2.60;;;25.70;87.10;;;;;;5032200;28;20470;-65
2023/07/23 09:04:32;;;;;;;3.20;2.30;;;25.90;87.80;;;;;;5031898;28;20459;-65
2023/07/23 09:07:01;;;;;;;3.27;2.40;;;26.10;87.00;;;;;;5014297;28;20471;-65
2023/07/23 09:09:29;;;;;;;3.10;2.50;;;26.10;86.40;;;;;;5031754;28;20454;-65
2023/07/23 09:11:56;;;;;;;4.50;2.77;;;26.10;86.30;;;;;;5031959;28;20486;-65
2023/07/23 09:14:25;;;;;;;3.73;2.43;;;26.00;86.40;;;;;;5031901;28;20819;-66
2023/07/23 09:16:54;;;;;;;4.17;2.50;;;25.90;85.80;;;;;;5014255;28;20546;-65
2023/07/23 09:19:26;;;;;;;3.93;2.60;;;25.90;87.50;;;;;;5031863;28;20458;-63
2023/07/23 09:21:58;;;;;;;3.37;2.50;;;25.90;86.60;;;;;;5031526;28;20937;-63
2023/07/23 09:24:32;;;;;;;4.27;2.67;;;25.80;86.60;;;;;;5031743;28;20493;-64
2023/07/23 09:26:59;;;;;;;3.87;2.40;;;25.80;87.30;;;;;;5031416;28;20489;-63
2023/07/23 09:29:35;;;;;;;4.27;2.50;;;25.60;88.50;;;;;;5031588;28;20494;-63
2023/07/23 09:32:03;;;;;;;3.50;2.53;;;25.60;88.60;;;;;;5031892;28;20508;-63
2023/07/23 09:37:11;;;;;;;4.07;2.50;;;25.80;87.60;;;;;;5221927;22;20490;-64
2023/07/23 09:39:39;;;;;;;4.10;2.50;;;26.00;88.10;;;;;;5030233;28;20457;-64
2023/07/23 09:42:06;;;;;;;3.33;2.30;;;26.30;87.40;;;;;;5031980;28;20557;-64
2023/07/23 09:44:33;;;;;;;2.77;2.20;;;26.30;86.60;;;;;;5031418;28;20450;-63
2023/07/23 09:47:01;;;;;;;4.03;2.60;;;26.40;85.50;;;;;;5031693;28;20971;-66
2023/07/23 09:49:30;;;;;;;3.70;2.40;;;26.40;86.00;;;;;;5031460;28;20509;-63
2023/07/23 09:51:57;;;;;;;3.67;2.50;;;26.40;86.50;;;;;;5031622;28;20574;-64
2023/07/23 09:54:27;;;;;;;3.10;2.20;;;26.40;85.60;;;;;;5031605;28;20467;-63
2023/07/23 09:56:55;;;;;;;3.30;2.40;;;26.60;86.20;;;;;;5031448;28;20458;-63
2023/07/23 09:59:22;;;;;;;6.30;2.67;;;26.60;86.20;;;;;;5031366;28;20822;-63
2023/07/23 10:01:51;;;;;;;2.77;2.20;;;26.70;86.90;;;;;;5031289;28;20482;-63
2023/07/23 10:04:19;;;;;;;3.03;2.13;;;26.90;85.80;;;;;;5031486;28;20948;-63
2023/07/23 10:06:48;;;;;;;3.10;2.30;;;27.00;85.00;;;;;;5031243;28;20494;-64
2023/07/23 10:09:17;;;;;;;3.37;2.30;;;27.10;84.50;;;;;;5030941;28;20825;-67
2023/07/23 10:11:46;;;;;;;2.60;2.20;;;27.20;85.20;;;;;;5031043;28;20482;-66
2023/07/23 10:14:14;;;;;;;3.03;2.07;;;27.40;84.20;;;;;;5031211;28;20455;-66
2023/07/23 10:16:44;;;;;;;3.10;2.30;;;27.50;83.70;;;;;;5030970;28;20567;-66
2023/07/23 10:19:12;;;;;;;2.47;1.87;;;27.60;83.40;;;;;;5030946;28;20815;-66
2023/07/23 10:21:39;;;;;;;3.10;2.20;;;27.70;82.70;;;;;;5031807;28;20460;-67
2023/07/23 10:24:07;;;;;;;3.93;2.00;;;27.70;80.20;;;;;;5031994;28;20520;-66
2023/07/23 10:26:42;;;;;;;3.70;2.40;;;27.90;79.20;;;;;;5030962;28;20557;-67
2023/07/23 10:29:12;;;;;;;3.00;2.20;;;27.70;78.00;;;;;;5013615;28;20981;-67
2023/07/23 10:31:40;;;;;;;2.30;1.87;;;27.80;79.00;;;;;;5031142;28;20461;-66
2023/07/23 10:34:40;;;;;;;2.70;1.80;;;27.90;78.20;;;;;;5013639;28;20463;-67
2023/07/23 10:37:12;;;;;;;2.60;2.00;;;27.90;77.50;;;;;;5030994;28;20536;-67
2023/07/23 10:39:40;;;;;;;2.53;1.90;;;27.90;78.30;;;;;;5031109;28;20498;-66
2023/07/23 10:42:09;;;;;;;3.23;2.20;;;28.20;78.20;;;;;;5031290;28;20455;-66
2023/07/23 10:44:40;;;;;;;2.43;1.90;;;28.40;77.10;;;;;;5031210;28;20463;-66
2023/07/23 10:47:30;;;;;;;3.80;2.43;;;28.70;76.30;;;;;;5031283;28;20549;-66
2023/07/23 10:50:11;;;;;;;2.90;2.20;;;28.80;76.00;;;;;;5031181;28;20493;-67
2023/07/23 10:52:38;;;;;;;2.57;1.90;;;28.80;75.90;;;;;;5030866;28;20987;-67
2023/07/23 10:55:08;;;;;;;2.90;2.00;;;28.40;76.30;;;;;;5030891;28;20508;-66
2023/07/23 10:57:41;;;;;;;3.10;2.23;;;28.50;77.10;;;;;;5013667;28;20880;-67
2023/07/23 11:00:21;;;;;;;3.30;2.30;;;28.70;76.90;;;;;;5030833;28;20470;-67
2023/07/23 11:02:49;;;;;;;3.47;2.27;;;28.80;74.50;;;;;;5030821;28;20453;-67
2023/07/23 11:05:18;;;;;;;3.70;2.00;;;28.80;75.30;;;;;;5030775;28;20557;-67
2023/07/23 11:08:18;;;;;;;2.33;2.00;;;28.70;75.60;;;;;;5030708;28;21028;-67
2023/07/23 11:10:48;;;;;;;6.53;2.10;;;28.70;75.30;;;;;;5030732;28;20992;-66
2023/07/23 11:13:16;;;;;;;2.37;1.97;;;28.80;74.80;;;;;;5013615;28;20581;-66
2023/07/23 11:15:46;;;;;;;3.40;2.17;;;29.10;74.30;;;;;;5030834;28;20541;-66
2023/07/23 11:18:13;;;;;;;3.30;2.20;;;28.90;73.60;;;;;;5012908;28;20450;-66
2023/07/23 11:20:46;;;;;;;4.13;2.13;;;28.80;74.40;;;;;;5030645;28;20450;-66
2023/07/23 11:23:14;;;;;;;2.77;2.17;;;28.70;74.00;;;;;;5030644;28;20903;-67
2023/07/23 11:25:41;;;;;;;3.20;2.27;;;28.60;73.70;;;;;;5030587;28;20889;-66
2023/07/23 11:28:08;;;;;;;3.40;2.40;;;28.40;74.60;;;;;;5013270;28;20458;-66
2023/07/23 11:30:35;;;;;;;5.47;2.23;;;28.40;75.30;;;;;;5034300;28;20454;-66
2023/07/23 11:33:05;;;;;;;3.73;2.30;;;28.40;76.40;;;;;;5016697;28;20490;-67
2023/07/23 11:35:32;;;;;;;2.97;2.13;;;28.60;75.20;;;;;;5016361;28;21013;-66
2023/07/23 11:38:02;;;;;;;3.23;2.20;;;28.80;74.20;;;;;;5034225;28;20465;-66
2023/07/23 11:40:29;;;;;;;3.33;2.40;;;28.60;73.90;;;;;;5034321;28;20959;-66
2023/07/23 11:42:57;;;;;;;4.00;2.57;;;28.50;74.30;;;;;;5033948;28;20458;-67
2023/07/23 11:45:24;;;;;;;3.40;2.30;;;28.70;74.70;;;;;;5033956;28;20455;-67
2023/07/23 11:47:54;;;;;;;3.30;2.20;;;29.20;74.00;;;;;;5034082;28;20461;-67
2023/07/23 11:50:24;;;;;;;5.70;2.03;;;29.60;72.40;;;;;;5033947;28;20818;-67
2023/07/23 11:52:52;;;;;;;5.30;2.90;;;30.00;71.50;;;;;;5033677;28;20534;-67
2023/07/23 11:55:20;;;;;;;3.30;2.30;;;30.40;71.50;;;;;;5033712;28;20520;-67
2023/07/23 11:57:52;;;;;;;3.13;2.20;;;30.50;70.40;;;;;;5033639;28;20975;-67
2023/07/23 12:00:25;;;;;;;5.03;2.60;;;30.60;69.30;;;;;;5033612;28;20493;-67
2023/07/23 12:02:53;;;;;;;3.47;2.23;;;30.70;69.30;;;;;;5033463;28;20458;-67
2023/07/23 12:05:20;;;;;;;5.50;2.30;;;30.90;69.20;;;;;;5033495;28;21026;-66
2023/07/23 12:07:49;;;;;;;3.20;2.40;;;31.30;69.00;;;;;;5033450;28;20458;-67
2023/07/23 12:10:17;;;;;;;4.17;2.33;;;31.40;67.60;;;;;;5033437;28;20509;-67
2023/07/23 12:12:46;;;;;;;4.00;2.53;;;31.20;68.80;;;;;;5033323;28;20475;-67
2023/07/23 12:15:14;;;;;;;4.27;2.40;;;30.80;68.30;;;;;;5033501;28;20568;-67
2023/07/23 12:17:42;;;;;;;3.30;2.50;;;30.30;69.60;;;;;;5015920;28;20506;-67
2023/07/23 12:20:10;;;;;;;3.83;2.63;;;30.30;69.20;;;;;;5033282;28;20512;-66
2023/07/23 12:22:51;;;;;;;4.33;2.77;;;30.20;69.20;;;;;;5033168;28;20550;-67
2023/07/23 12:25:18;;;;;;;4.30;2.90;;;30.40;69.90;;;;;;5015670;28;20454;-66
2023/07/23 12:27:46;;;;;;;4.27;2.63;;;30.50;69.20;;;;;;5033046;28;20455;-67
2023/07/23 12:30:14;;;;;;;2.80;2.40;;;30.70;69.90;;;;;;5015358;28;20466;-67
2023/07/23 12:32:41;;;;;;;3.30;2.40;;;30.70;69.70;;;;;;5033243;28;20482;-67
2023/07/23 12:35:09;;;;;;;4.37;2.63;;;30.50;69.40;;;;;;5033352;28;20891;-67
2023/07/23 12:37:36;;;;;;;3.80;2.70;;;30.30;70.90;;;;;;5033001;28;20459;-66
2023/07/23 12:40:08;;;;;;;3.33;2.60;;;30.20;70.10;;;;;;5032375;28;20470;-67
2023/07/23 12:42:35;;;;;;;3.47;2.43;;;30.20;69.90;;;;;;5033131;28;20462;-67
2023/07/23 12:45:04;;;;;;;3.60;2.30;;;30.10;69.40;;;;;;5032826;28;20455;-66
2023/07/23 12:47:31;;;;;;;3.43;2.43;;;29.90;69.70;;;;;;5032737;28;20462;-66
2023/07/23 12:50:00;;;;;;;3.90;2.50;;;29.70;69.80;;;;;;5032704;28;20458;-66
2023/07/23 12:52:28;;;;;;;4.07;2.40;;;29.50;69.90;;;;;;5032482;28;20486;-67
2023/07/23 12:54:56;;;;;;;3.70;2.30;;;29.40;70.60;;;;;;5032425;28;20434;-67